Terminal Aerodrome Forecast
Issued by NWS Rapid City, SD

Home | Current Version | Previous Version | Text Only | Print | Product List | Glossary Off
Versions: 1 2 3 4 5 6 7 8 9 10 11 12

000
FTUS43 KUNR 211100
TAFRAP
TAF
KRAP 211120Z 2112/2212 33006KT P6SM SKC
     FM211800 10007KT P6SM SKC
     FM220300 15008KT P6SM SKC=

USA.gov is the U.S. government's official web portal to all federal, state and local government web resources and services.